Estación Meteorológica Peña el Pijo (Robertgarden) [ 02/03/23 04:37:59 CET ]

Fecha Hora Presion(HPa) Temp (°C) Humedad % Rocio (°C) Viento ( m/s) Direccion Lluvia 1Hora(mm) Lluvia 24H(mm) LLuvia Total(mm)
2010-Apr-02 01:01:14 1012.700 2.2 73 -2.2         104.63
2010-Apr-02 02:01:13 1012.000 1.9 76 -1.9         104.63
2010-Apr-02 03:01:42 1011.800 1.8 77 -1.8         104.63
2010-Apr-02 04:01:41 1011.600 1.1 80 -2.0         104.63
2010-Apr-02 05:08:06 1011.500 1.5 80 -1.6         104.63
2010-Apr-02 06:01:13 1011.300 0.9 81 -2.0         104.63
2010-Apr-02 07:01:13 1011.400 -0.4 84 -2.8         104.63
2010-Apr-02 08:01:13 1011.900 -1.2 85 -3.4         104.63
2010-Apr-02 09:01:14 1011.900 0.9 87 -1.1         104.63
2010-Apr-02 10:01:20 1011.700 7.3 70 2.2         104.63
2010-Apr-02 11:01:13 1011.800 12.5 46 1.1         104.63
2010-Apr-02 12:01:15 1011.600 16.7 25 -3.7         104.63
2010-Apr-02 13:01:11 1011.400 19.1 20 -4.4         104.63
2010-Apr-02 14:01:13 1011.200 20.4 18 -5.1         104.63
2010-Apr-02 15:01:13 1010.500 20.7 19 -3.9         104.63
2010-Apr-02 16:01:14 1010.400 21.3 19 -3.5         104.63
2010-Apr-02 17:01:13 1009.500 20.4 20 -3.3         104.63
2010-Apr-02 18:01:12 1009.200 19.6 22 -2.9         104.63
2010-Apr-02 19:01:12 1009.400 18.5 23 -3.2         104.63
2010-Apr-02 20:01:13 1009.600 14.9 27 -4.1         104.63
2010-Apr-02 21:01:10 1010.400 11.5 34 -3.9         104.63
2010-Apr-02 22:01:16 1011.100 8.4 43 -3.5         104.63
2010-Apr-02 23:01:16 1011.400 6.6 50 -3.1         104.63

Temperatura Máxima:21°    Temperatura Mínima:-1°
Presión Máxima:1012.700 Hpa    Presión Mínima:1009.200 Hpa


Volver